Time;durP1;ratioP1;P1;durP2;ratioP2;P2;SDS_P1;SDS_P2;PMS_P1;PMS_P2;Temp;Humidity;BMP_temperature;BMP_pressure;BME280_temperature;BME280_humidity;BME280_pressure;Samples;Min_cycle;Max_cycle;Signal;HPM_P1;HPM_P2
2022/12/20 00:00:22;;;;;;;20.63;12.40;;;0.10;99.90;;;0.70;100.00;98534.81;5092884;28;20581;-82
2022/12/20 00:02:51;;;;;;;22.80;11.43;;;0.10;99.90;;;0.69;100.00;98535.78;5085811;28;20466;-83
2022/12/20 00:05:21;;;;;;;30.90;13.07;;;0.10;99.90;;;0.71;100.00;98533.06;5084396;28;21180;-82
2022/12/20 00:07:52;;;;;;;30.70;14.30;;;0.10;99.90;;;0.72;100.00;98532.16;5087742;28;20545;-82
2022/12/20 00:10:22;;;;;;;21.93;11.90;;;0.10;99.90;;;0.72;100.00;98532.16;5089367;28;20472;-82
2022/12/20 00:12:51;;;;;;;25.93;13.10;;;0.10;99.90;;;0.72;100.00;98521.84;5092475;28;20499;-82
2022/12/20 00:15:22;;;;;;;26.07;14.23;;;0.10;99.90;;;0.69;100.00;98517.75;5089256;28;20496;-82
2022/12/20 00:17:52;;;;;;;22.53;12.30;;;0.00;99.90;;;0.70;100.00;98510.84;5089257;28;20473;-82
2022/12/20 00:20:22;;;;;;;28.60;11.83;;;0.10;99.90;;;0.70;100.00;98508.25;5092596;28;20471;-82
2022/12/20 00:22:52;;;;;;;27.97;15.07;;;0.10;99.90;;;0.67;100.00;98506.75;5088219;28;20460;-82
2022/12/20 00:25:22;;;;;;;29.40;15.13;;;0.00;99.90;;;0.66;100.00;98505.09;5089916;28;20489;-83
2022/12/20 00:27:52;;;;;;;27.63;15.70;;;0.00;99.90;;;0.64;100.00;98501.00;5093942;28;20487;-82
2022/12/20 00:30:23;;;;;;;25.23;13.27;;;0.00;99.90;;;0.62;100.00;98505.47;5091341;28;20464;-82
2022/12/20 00:32:53;;;;;;;22.83;11.83;;;-0.10;99.90;;;0.61;100.00;98502.06;5093149;28;20556;-82
2022/12/20 00:35:22;;;;;;;28.33;13.63;;;-0.10;99.90;;;0.62;100.00;98497.75;5086992;28;20901;-82
2022/12/20 00:37:53;;;;;;;36.80;17.07;;;0.00;99.90;;;0.62;100.00;98484.88;5091103;28;20536;-82
2022/12/20 00:40:23;;;;;;;47.57;18.20;;;0.00;99.90;;;0.64;100.00;98495.84;5089801;28;20467;-83
2022/12/20 00:42:52;;;;;;;33.33;15.93;;;0.00;99.90;;;0.64;100.00;98498.44;5089490;28;20520;-82
2022/12/20 00:45:23;;;;;;;64.33;19.17;;;0.00;99.90;;;0.63;100.00;98507.06;5092201;28;20469;-83
2022/12/20 00:47:53;;;;;;;61.47;23.47;;;0.00;99.90;;;0.64;100.00;98498.44;5089778;28;20461;-82
2022/12/20 00:50:23;;;;;;;52.90;23.07;;;0.10;99.90;;;0.65;100.00;98502.66;5090717;28;20578;-83
2022/12/20 00:52:54;;;;;;;59.10;21.27;;;0.00;99.90;;;0.64;100.00;98503.56;5091730;28;20999;-82
2022/12/20 00:55:24;;;;;;;29.60;15.90;;;0.20;99.90;;;0.66;100.00;98506.88;5091985;28;20467;-83
2022/12/20 00:57:54;;;;;;;34.77;15.60;;;0.00;99.90;;;0.63;100.00;98507.06;5097253;28;20462;-82
2022/12/20 01:00:26;;;;;;;35.40;15.87;;;0.00;99.90;;;0.63;100.00;98512.22;5092398;28;20443;-82
2022/12/20 01:02:56;;;;;;;31.20;15.67;;;0.00;99.90;;;0.61;100.00;98506.38;5096428;28;20463;-83
2022/12/20 01:05:26;;;;;;;26.60;14.73;;;-0.10;99.90;;;0.61;100.00;98503.81;5094829;28;20972;-83
2022/12/20 01:07:57;;;;;;;27.63;14.30;;;0.00;99.90;;;0.60;100.00;98504.72;5094618;28;20890;-83
2022/12/20 01:10:27;;;;;;;32.80;15.47;;;-0.10;99.90;;;0.58;100.00;98496.31;5092374;28;20525;-83
2022/12/20 01:12:56;;;;;;;28.23;15.27;;;-0.10;99.90;;;0.53;100.00;98488.94;5096072;28;20503;-82
2022/12/20 01:15:26;;;;;;;31.87;13.90;;;-0.10;99.90;;;0.53;100.00;98496.66;5093291;28;20469;-82
2022/12/20 01:17:56;;;;;;;34.23;14.70;;;-0.10;99.90;;;0.50;100.00;98500.28;5096296;28;20523;-82
2022/12/20 01:20:26;;;;;;;29.10;13.30;;;-0.20;99.90;;;0.52;100.00;98494.22;5096047;28;20599;-83
2022/12/20 01:22:55;;;;;;;30.60;15.30;;;-0.20;99.90;;;0.51;100.00;98495.97;5091139;28;20476;-81
2022/12/20 01:25:24;;;;;;;31.33;14.83;;;-0.20;99.90;;;0.49;100.00;98500.38;5095422;28;20542;-82
2022/12/20 01:27:53;;;;;;;32.47;14.90;;;-0.20;99.90;;;0.49;100.00;98501.19;5088096;28;20496;-83
2022/12/20 01:30:23;;;;;;;30.53;14.13;;;-0.20;99.90;;;0.50;100.00;98502.84;5082014;28;20548;-82
2022/12/20 01:32:55;;;;;;;23.77;12.27;;;-0.20;99.90;;;0.52;100.00;98500.97;5093870;28;20541;-83
2022/12/20 01:35:26;;;;;;;40.13;14.37;;;-0.10;99.90;;;0.54;100.00;98497.47;5088264;28;20461;-82
2022/12/20 01:37:55;;;;;;;31.97;13.83;;;-0.10;99.90;;;0.54;100.00;98498.31;5090178;28;20545;-83
2022/12/20 01:40:25;;;;;;;29.10;14.83;;;-0.10;99.90;;;0.54;100.00;98492.34;5090067;28;20470;-83
2022/12/20 01:42:55;;;;;;;32.10;14.20;;;-0.10;99.90;;;0.57;100.00;98497.25;5092454;28;20469;-83
2022/12/20 01:45:30;;;;;;;33.87;14.47;;;0.00;99.90;;;0.58;100.00;98478.31;5090791;28;20855;-83
2022/12/20 01:48:01;;;;;;;28.63;14.10;;;0.00;99.90;;;0.61;100.00;98478.09;5089039;28;20505;-82
2022/12/20 01:50:32;;;;;;;29.67;13.97;;;0.00;99.90;;;0.60;100.00;98472.13;5089594;28;20457;-83
2022/12/20 01:53:04;;;;;;;24.63;14.00;;;0.00;99.90;;;0.61;100.00;98475.50;5106856;27;20565;-81
2022/12/20 01:55:34;;;;;;;35.67;15.00;;;0.00;99.90;;;0.62;100.00;98472.00;5092562;28;20471;-83
2022/12/20 01:58:10;;;;;;;25.57;14.57;;;0.00;99.90;;;0.63;100.00;98474.44;5088253;28;21069;-83
2022/12/20 02:00:40;;;;;;;34.30;13.70;;;0.10;99.90;;;0.64;100.00;98477.84;5087393;28;20452;-83
2022/12/20 02:03:17;;;;;;;28.80;13.10;;;0.00;99.90;;;0.65;100.00;98471.78;5090766;28;20494;-83
2022/12/20 02:05:47;;;;;;;31.47;14.43;;;0.00;99.90;;;0.67;100.00;98478.44;5088379;28;20942;-83
2022/12/20 02:08:20;;;;;;;26.27;13.07;;;0.10;99.90;;;0.67;100.00;98465.56;5092368;28;20484;-83
2022/12/20 02:11:36;;;;;;;25.17;13.27;;;0.10;99.90;;;0.69;100.00;98471.44;5091924;28;20477;-83
2022/12/20 02:14:19;;;;;;;28.33;14.53;;;0.10;99.90;;;0.71;100.00;98463.59;5093675;28;20467;-82
2022/12/20 02:17:00;;;;;;;20.97;11.77;;;0.10;99.90;;;0.73;100.00;98472.03;5091814;28;20480;-83
2022/12/20 02:20:18;;;;;;;36.67;14.40;;;0.20;99.90;;;0.76;100.00;98461.50;5091397;28;20571;-82
2022/12/20 02:23:16;;;;;;;44.37;16.90;;;0.20;99.90;;;0.77;100.00;98451.09;5052165;28;20479;-82
2022/12/20 02:26:05;;;;;;;36.50;17.00;;;0.20;99.90;;;0.79;100.00;98438.13;5093341;28;20543;-83
2022/12/20 02:29:08;;;;;;;35.40;16.23;;;0.20;99.90;;;0.79;100.00;98440.69;5090344;28;20470;-82
2022/12/20 02:31:46;;;;;;;34.67;17.13;;;0.20;99.90;;;0.81;100.00;98447.34;5091141;28;20466;-83
2022/12/20 02:34:20;;;;;;;29.30;16.17;;;0.20;99.90;;;0.82;100.00;98446.41;5090648;28;20460;-83
2022/12/20 02:36:49;;;;;;;37.73;18.57;;;0.20;99.90;;;0.84;100.00;98448.88;5093636;28;20510;-83
2022/12/20 02:39:21;;;;;;;27.30;14.73;;;0.30;99.90;;;0.85;100.00;98445.34;5095950;28;20455;-83
2022/12/20 02:41:58;;;;;;;35.13;17.40;;;0.30;99.90;;;0.85;100.00;98435.88;5088242;28;20492;-83
2022/12/20 02:47:26;;;;;;;36.47;15.07;;;0.40;99.90;;;0.88;100.00;98445.94;5090525;28;20569;-82
2022/12/20 02:49:58;;;;;;;31.67;17.50;;;0.30;99.90;;;0.89;100.00;98439.06;5092679;28;21057;-83
2022/12/20 02:52:32;;;;;;;42.50;19.03;;;0.30;99.90;;;0.89;100.00;98433.91;5099388;28;20457;-82
2022/12/20 02:55:04;;;;;;;32.23;16.37;;;0.30;99.90;;;0.90;100.00;98422.69;5096408;28;20571;-82
2022/12/20 02:57:48;;;;;;;33.17;16.17;;;0.30;99.90;;;0.89;100.00;98414.13;5096700;28;20568;-83
2022/12/20 03:00:32;;;;;;;34.47;16.70;;;0.30;99.90;;;0.90;100.00;98402.09;5091804;28;20502;-82
2022/12/20 03:03:23;;;;;;;34.53;17.67;;;0.30;99.90;;;0.89;100.00;98390.16;5093951;28;20462;-83
2022/12/20 03:05:56;;;;;;;31.93;15.90;;;0.30;99.90;;;0.89;100.00;98395.28;5095085;28;20572;-83
2022/12/20 03:08:26;;;;;;;33.07;15.20;;;0.50;99.90;;;0.88;100.00;98417.63;5091170;28;20541;-83
2022/12/20 03:10:57;;;;;;;34.10;15.10;;;0.30;99.90;;;0.87;100.00;98420.31;5092394;28;20453;-84
2022/12/20 03:13:26;;;;;;;32.73;14.13;;;0.30;99.90;;;0.89;100.00;98408.97;5093804;28;20849;-84
2022/12/20 03:15:56;;;;;;;33.50;15.80;;;0.40;99.90;;;0.90;100.00;98409.81;5093222;28;20522;-82
2022/12/20 03:18:26;;;;;;;33.27;15.70;;;0.30;99.90;;;0.88;100.00;98414.25;5090400;28;20533;-83
2022/12/20 03:20:58;;;;;;;29.50;15.83;;;0.30;99.90;;;0.85;100.00;98420.44;5091558;28;20963;-82
2022/12/20 03:23:28;;;;;;;31.57;15.20;;;0.30;99.90;;;0.85;100.00;98419.63;5096463;28;20488;-83
2022/12/20 03:25:57;;;;;;;30.50;15.50;;;0.20;99.90;;;0.84;100.00;98420.56;5091516;28;20562;-82
2022/12/20 03:28:27;;;;;;;30.50;15.90;;;0.40;99.90;;;0.84;100.00;98420.56;5093810;28;20489;-83
2022/12/20 03:30:56;;;;;;;33.93;17.40;;;0.20;99.90;;;0.80;100.00;98407.09;5095002;28;20530;-83
2022/12/20 03:33:28;;;;;;;30.40;15.43;;;0.30;99.90;;;0.76;100.00;98408.28;5099005;28;20467;-82
2022/12/20 03:35:58;;;;;;;34.03;15.00;;;0.20;99.90;;;0.74;100.00;98409.31;5097911;28;20482;-83
2022/12/20 03:38:28;;;;;;;25.93;14.33;;;0.10;99.90;;;0.69;100.00;98412.25;5094823;28;20457;-82
2022/12/20 03:40:58;;;;;;;20.90;12.10;;;0.00;99.90;;;0.68;100.00;98409.78;5093882;28;20510;-83
2022/12/20 03:43:28;;;;;;;24.53;13.27;;;0.00;99.90;;;0.66;100.00;98406.53;5095084;28;20455;-82
2022/12/20 03:45:58;;;;;;;30.80;13.73;;;0.00;99.90;;;0.64;100.00;98398.91;5112569;27;20471;-83
2022/12/20 03:48:28;;;;;;;30.47;12.73;;;0.00;99.90;;;0.62;100.00;98405.94;5097368;28;20501;-83
2022/12/20 03:51:00;;;;;;;18.57;10.37;;;-0.10;99.90;;;0.63;100.00;98404.16;5095824;28;20492;-82
2022/12/20 03:53:29;;;;;;;18.33;10.17;;;0.00;99.90;;;0.65;100.00;98403.13;5095960;28;20500;-82
2022/12/20 03:55:59;;;;;;;25.97;11.40;;;0.00;99.90;;;0.65;100.00;98394.59;5099283;28;20622;-82
2022/12/20 03:58:29;;;;;;;20.03;10.50;;;0.00;99.90;;;0.66;100.00;98396.25;5096313;28;20481;-81
2022/12/20 04:01:01;;;;;;;20.77;11.23;;;0.00;99.90;;;0.68;100.00;98389.22;5096758;28;20501;-82
2022/12/20 04:03:33;;;;;;;21.93;11.60;;;0.10;99.90;;;0.68;100.00;98392.59;5090846;28;21004;-81
2022/12/20 04:06:03;;;;;;;26.13;11.47;;;0.20;99.90;;;0.69;100.00;98401.16;5093749;28;20493;-82
2022/12/20 04:08:34;;;;;;;25.20;12.27;;;0.10;99.90;;;0.68;100.00;98394.34;5091299;28;20528;-82
2022/12/20 04:11:16;;;;;;;25.93;12.57;;;0.10;99.90;;;0.68;100.00;98389.22;5094269;28;20483;-83
2022/12/20 04:13:47;;;;;;;44.47;13.43;;;0.10;99.90;;;0.67;100.00;98392.72;5087919;28;20490;-82
2022/12/20 04:16:20;;;;;;;27.67;13.37;;;0.10;99.90;;;0.67;100.00;98393.53;5091959;28;20483;-81
2022/12/20 04:18:51;;;;;;;28.63;13.03;;;0.10;99.90;;;0.67;100.00;98400.44;5092249;28;20467;-81
2022/12/20 04:21:23;;;;;;;22.90;10.37;;;0.10;99.90;;;0.68;100.00;98394.34;5091760;28;20458;-81
2022/12/20 04:23:54;;;;;;;22.37;12.40;;;0.10;99.90;;;0.69;100.00;98393.44;5091893;28;20550;-81
2022/12/20 04:26:24;;;;;;;23.17;12.47;;;0.10;99.90;;;0.69;100.00;98393.44;5096519;28;22182;-81
2022/12/20 04:28:53;;;;;;;29.33;13.07;;;0.10;99.90;;;0.70;100.00;98385.56;5089836;28;20489;-81
2022/12/20 04:31:23;;;;;;;26.03;13.67;;;0.10;99.90;;;0.72;100.00;98388.88;5089953;28;20472;-86
2022/12/20 04:33:55;;;;;;;28.80;13.30;;;0.10;99.90;;;0.71;100.00;98386.41;5094648;28;20472;-81
2022/12/20 04:36:25;;;;;;;27.10;13.23;;;0.10;99.90;;;0.73;100.00;98380.19;5088838;28;20451;-81
2022/12/20 04:38:55;;;;;;;29.70;13.00;;;0.10;99.90;;;0.75;100.00;98372.38;5093111;28;20464;-81
2022/12/20 04:41:26;;;;;;;31.33;13.97;;;0.20;99.90;;;0.76;100.00;98377.41;5092235;28;20560;-81
2022/12/20 04:43:58;;;;;;;31.10;13.47;;;0.20;99.90;;;0.77;100.00;98393.66;5092547;28;20460;-81
2022/12/20 04:46:29;;;;;;;26.17;11.77;;;0.20;99.90;;;0.78;100.00;98397.88;5090454;28;20465;-81
2022/12/20 04:49:02;;;;;;;26.63;12.63;;;0.20;99.90;;;0.80;100.00;98393.44;5091987;28;20491;-81
2022/12/20 04:51:32;;;;;;;22.60;10.93;;;0.30;99.90;;;0.81;100.00;98387.34;5090753;28;20462;-82
2022/12/20 04:54:01;;;;;;;30.77;11.90;;;0.30;99.90;;;0.82;100.00;98368.38;5090888;28;20549;-81
2022/12/20 04:56:32;;;;;;;23.33;11.17;;;0.20;99.90;;;0.82;100.00;98358.09;5092548;28;21048;-81
2022/12/20 04:59:01;;;;;;;24.47;12.80;;;0.30;99.90;;;0.85;100.00;98363.00;5089270;28;20477;-81
2022/12/20 05:01:30;;;;;;;25.27;11.83;;;0.30;99.90;;;0.86;100.00;98349.22;5094538;28;20463;-82
2022/12/20 05:04:02;;;;;;;24.50;12.30;;;0.30;99.90;;;0.88;100.00;98343.00;5090336;28;20474;-81
2022/12/20 05:06:32;;;;;;;33.97;13.70;;;0.40;99.90;;;0.90;100.00;98356.56;5089895;28;20503;-81
2022/12/20 05:09:03;;;;;;;24.77;12.77;;;0.40;99.90;;;0.93;100.00;98345.22;5091335;28;20527;-81
2022/12/20 05:11:33;;;;;;;23.97;12.03;;;0.40;99.90;;;0.94;100.00;98349.41;5090141;28;20470;-81
2022/12/20 05:14:04;;;;;;;29.43;12.80;;;0.40;99.90;;;0.95;100.00;98338.19;5090733;28;20455;-82
2022/12/20 05:16:33;;;;;;;29.87;12.20;;;0.40;99.90;;;0.96;100.00;98350.13;5086668;28;20498;-80
2022/12/20 05:19:04;;;;;;;32.60;13.00;;;0.40;99.90;;;0.98;100.00;98353.38;5091892;28;20539;-81
2022/12/20 05:27:08;;;;;;;30.50;12.13;;;0.50;99.90;;;1.00;100.00;98342.06;5084883;28;20463;-80
2022/12/20 05:29:39;;;;;;;32.30;11.67;;;0.50;99.90;;;1.01;100.00;98338.53;5094672;28;20508;-79
2022/12/20 05:32:08;;;;;;;26.43;12.07;;;0.50;99.90;;;1.03;100.00;98333.25;5095890;28;20557;-79
2022/12/20 05:34:39;;;;;;;21.77;12.20;;;0.50;99.90;;;1.03;100.00;98338.41;5088888;28;20904;-79
2022/12/20 05:37:09;;;;;;;24.90;11.30;;;0.50;99.90;;;1.05;100.00;98336.53;5094571;28;20992;-79
2022/12/20 05:39:38;;;;;;;25.87;12.37;;;0.50;99.90;;;1.06;100.00;98333.03;5095359;28;20875;-79
2022/12/20 05:42:09;;;;;;;29.37;12.93;;;0.50;99.90;;;1.07;100.00;98321.78;5095993;28;21073;-79
2022/12/20 05:44:38;;;;;;;19.50;10.27;;;0.50;99.90;;;1.08;100.00;98320.84;5093819;28;21135;-79
2022/12/20 05:47:08;;;;;;;23.90;11.07;;;0.50;99.90;;;1.09;100.00;98319.91;5094615;28;20957;-79
2022/12/20 05:49:39;;;;;;;17.10;9.20;;;0.60;99.90;;;1.11;100.00;98325.72;5094710;28;21105;-79
2022/12/20 05:52:10;;;;;;;21.33;10.30;;;0.60;99.90;;;1.14;100.00;98327.28;5095072;28;20507;-79
2022/12/20 05:54:40;;;;;;;22.00;10.03;;;0.60;99.90;;;1.16;100.00;98327.97;5095161;28;20460;-79
2022/12/20 05:57:10;;;;;;;16.83;8.60;;;0.60;99.90;;;1.16;100.00;98323.63;5095285;28;20583;-79
2022/12/20 05:59:40;;;;;;;20.43;9.37;;;0.60;99.90;;;1.16;100.00;98315.09;5091244;28;20574;-79
2022/12/20 06:02:11;;;;;;;17.83;9.00;;;0.60;99.90;;;1.17;100.00;98319.31;5092123;28;20514;-79
2022/12/20 06:04:43;;;;;;;19.93;9.47;;;0.60;99.90;;;1.18;100.00;98319.16;5093021;28;20464;-79
2022/12/20 06:07:13;;;;;;;15.10;8.93;;;0.60;99.90;;;1.20;100.00;98325.03;5091847;28;20466;-79
2022/12/20 06:09:43;;;;;;;16.70;9.40;;;0.70;99.90;;;1.21;100.00;98318.13;5090133;28;20497;-79
2022/12/20 06:12:13;;;;;;;14.30;8.07;;;0.60;99.90;;;1.21;100.00;98323.28;5091105;28;21020;-78
2022/12/20 06:14:44;;;;;;;18.37;7.87;;;0.70;99.90;;;1.22;100.00;98336.00;5090000;28;20464;-80
2022/12/20 06:17:14;;;;;;;11.50;6.60;;;0.70;99.90;;;1.22;100.00;98333.44;5089970;28;20472;-79
2022/12/20 06:19:46;;;;;;;13.30;7.20;;;0.60;99.90;;;1.22;100.00;98332.63;5090393;28;20509;-79
2022/12/20 06:22:16;;;;;;;15.17;8.00;;;0.60;99.90;;;1.22;100.00;98325.72;5089278;28;20447;-79
2022/12/20 06:24:45;;;;;;;13.37;6.90;;;0.70;99.90;;;1.24;100.00;98323.84;5088880;28;20476;-79
2022/12/20 06:27:17;;;;;;;18.43;8.43;;;0.70;99.90;;;1.24;100.00;98323.84;5088477;28;20451;-79
2022/12/20 06:29:50;;;;;;;12.03;6.30;;;0.70;99.90;;;1.25;100.00;98324.66;5088945;28;20586;-79
2022/12/20 06:32:20;;;;;;;11.00;6.13;;;0.70;99.90;;;1.24;100.00;98316.13;5087688;28;20497;-79
2022/12/20 06:34:52;;;;;;;14.13;6.67;;;0.70;99.90;;;1.23;100.00;98309.31;5088719;28;20982;-79
2022/12/20 06:37:22;;;;;;;11.70;6.30;;;0.60;99.90;;;1.24;100.00;98312.72;5089680;28;20463;-79
2022/12/20 06:39:51;;;;;;;12.27;6.00;;;0.60;99.90;;;1.22;100.00;98310.25;5088389;28;20551;-80
2022/12/20 06:42:22;;;;;;;10.07;5.73;;;0.70;99.90;;;1.23;100.00;98311.91;5089454;28;20516;-79
2022/12/20 06:44:52;;;;;;;8.70;4.97;;;0.70;99.90;;;1.24;100.00;98307.56;5087077;28;20462;-79
2022/12/20 06:47:20;;;;;;;8.80;4.70;;;0.70;99.90;;;1.25;100.00;98302.28;5086388;28;20532;-79
2022/12/20 06:49:52;;;;;;;9.30;4.90;;;0.70;99.90;;;1.25;100.00;98299.72;5089711;28;20549;-79
2022/12/20 06:52:22;;;;;;;7.90;4.93;;;0.70;99.90;;;1.24;100.00;98303.25;5089161;28;20470;-79
2022/12/20 06:54:53;;;;;;;6.03;4.50;;;0.70;99.90;;;1.22;100.00;98306.84;5088402;28;20484;-79
2022/12/20 06:57:22;;;;;;;6.83;4.30;;;0.60;99.90;;;1.21;100.00;98300.91;5086575;28;21443;-80
2022/12/20 06:59:53;;;;;;;6.93;4.53;;;0.70;99.90;;;1.20;100.00;98295.88;5090699;28;20458;-79
2022/12/20 07:02:23;;;;;;;8.30;5.00;;;0.60;99.90;;;1.19;100.00;98304.53;5090605;28;20487;-79
2022/12/20 07:04:58;;;;;;;6.63;3.80;;;0.40;99.90;;;1.19;100.00;98305.34;5087862;28;20473;-79
2022/12/20 07:07:28;;;;;;;9.73;4.23;;;0.60;99.90;;;1.21;100.00;98307.81;5088114;28;20460;-79
2022/12/20 07:09:58;;;;;;;7.80;4.23;;;0.70;99.90;;;1.19;100.00;98314.84;5089454;28;20503;-80
2022/12/20 07:12:29;;;;;;;7.43;3.77;;;0.60;99.90;;;1.16;100.00;98308.19;5087617;28;20493;-80
2022/12/20 07:14:59;;;;;;;6.97;3.70;;;0.50;99.90;;;1.17;100.00;98306.44;5088817;28;20471;-80
2022/12/20 07:17:29;;;;;;;4.03;3.30;;;0.50;99.90;;;1.18;100.00;98308.84;5092190;28;20473;-80
2022/12/20 07:20:00;;;;;;;7.20;3.17;;;0.60;99.90;;;1.15;100.00;98295.41;5087349;28;20548;-80
2022/12/20 07:22:37;;;;;;;6.47;3.87;;;0.50;99.90;;;1.17;100.00;98289.22;5091821;28;20484;-79
2022/12/20 07:25:09;;;;;;;5.20;3.90;;;0.60;99.90;;;1.19;100.00;98297.63;5097695;28;20518;-80
2022/12/20 07:27:40;;;;;;;6.10;3.80;;;0.70;99.90;;;1.21;100.00;98294.94;5097542;28;20465;-80
2022/12/20 07:30:10;;;;;;;3.90;3.17;;;0.60;99.90;;;1.20;100.00;98288.97;5097857;28;20842;-80
2022/12/20 07:32:41;;;;;;;4.97;3.47;;;0.60;99.90;;;1.23;100.00;98290.47;5096509;28;20471;-81
2022/12/20 07:35:13;;;;;;;4.50;3.67;;;0.70;99.90;;;1.20;100.00;98296.69;5096869;28;20516;-80
2022/12/20 07:37:43;;;;;;;9.80;4.00;;;0.70;99.90;;;1.20;100.00;98295.88;5094909;28;20472;-81
2022/12/20 07:40:16;;;;;;;5.30;3.20;;;0.70;99.90;;;1.23;100.00;98290.47;5092041;28;20588;-81
2022/12/20 07:42:45;;;;;;;6.87;3.33;;;0.70;99.90;;;1.28;100.00;98289.19;5092158;28;20573;-81
2022/12/20 07:45:17;;;;;;;4.90;3.47;;;0.70;99.90;;;1.29;100.00;98277.09;5095104;28;20464;-80
2022/12/20 07:47:47;;;;;;;9.10;3.17;;;0.70;99.90;;;1.28;100.00;98281.47;5097264;28;20557;-81
2022/12/20 07:50:18;;;;;;;6.43;3.03;;;0.70;99.90;;;1.31;100.00;98288.94;5094090;28;20493;-80
2022/12/20 07:52:49;;;;;;;6.40;3.53;;;0.80;99.90;;;1.33;100.00;98281.91;5096842;28;21179;-81
2022/12/20 07:55:20;;;;;;;3.83;3.10;;;0.80;99.90;;;1.35;100.00;98280.03;5097335;28;21063;-79
2022/12/20 07:57:56;;;;;;;5.47;3.33;;;0.80;99.90;;;1.37;100.00;98283.28;5096556;28;20845;-80
2022/12/20 08:00:26;;;;;;;5.13;3.73;;;0.80;99.90;;;1.37;100.00;98285.88;5093864;28;20456;-80
2022/12/20 08:03:03;;;;;;;4.70;3.30;;;0.90;99.90;;;1.35;100.00;98290.34;5094115;28;20469;-81
2022/12/20 08:05:39;;;;;;;7.67;4.03;;;0.90;99.90;;;1.37;100.00;98282.47;5093647;28;20447;-81
2022/12/20 08:08:11;;;;;;;5.57;3.40;;;0.80;99.90;;;1.37;100.00;98278.13;5093629;28;20485;-82
2022/12/20 08:10:41;;;;;;;4.97;3.53;;;0.80;99.90;;;1.39;100.00;98276.25;5093811;28;21194;-81
2022/12/20 08:13:11;;;;;;;5.90;3.40;;;0.80;99.90;;;1.39;100.00;98267.69;5089546;28;20556;-81
2022/12/20 08:15:41;;;;;;;4.80;3.63;;;0.90;99.90;;;1.41;100.00;98278.72;5094218;28;20461;-81
2022/12/20 08:18:11;;;;;;;5.43;3.33;;;0.90;99.90;;;1.42;100.00;98281.13;5094403;28;20469;-82
2022/12/20 08:20:41;;;;;;;4.87;3.83;;;0.90;99.90;;;1.43;100.00;98287.13;5094409;28;20522;-81
2022/12/20 08:23:11;;;;;;;4.50;3.60;;;0.90;99.90;;;1.47;100.00;98283.34;5093494;28;20567;-81
2022/12/20 08:25:41;;;;;;;4.97;3.53;;;0.90;99.90;;;1.46;100.00;98276.56;5091727;28;20958;-81
2022/12/20 08:28:11;;;;;;;4.80;3.40;;;0.90;99.90;;;1.49;100.00;98277.13;5092006;28;21018;-81
2022/12/20 08:30:41;;;;;;;5.53;3.90;;;1.10;99.90;;;1.52;100.00;98278.66;5092503;28;20498;-81
2022/12/20 08:33:12;;;;;;;8.10;4.50;;;1.00;99.90;;;1.52;100.00;98271.75;5094581;28;20645;-81
2022/12/20 08:35:43;;;;;;;7.80;4.60;;;1.00;99.90;;;1.54;100.00;98269.03;5093853;28;20930;-81
2022/12/20 08:38:14;;;;;;;4.70;3.60;;;1.00;99.90;;;1.53;100.00;98272.53;5094802;28;21143;-81
2022/12/20 08:40:46;;;;;;;14.30;4.83;;;1.00;99.90;;;1.55;100.00;98264.69;5093573;28;20455;-81
2022/12/20 08:43:16;;;;;;;7.20;4.00;;;1.00;99.90;;;1.55;100.00;98262.94;5092780;28;20463;-81
2022/12/20 08:45:46;;;;;;;5.67;3.80;;;1.00;99.90;;;1.56;100.00;98271.50;5091424;28;20590;-81
2022/12/20 08:48:16;;;;;;;5.90;3.90;;;1.00;99.90;;;1.58;100.00;98275.56;5091835;28;20586;-81
2022/12/20 08:50:47;;;;;;;7.07;4.60;;;1.00;99.90;;;1.62;100.00;98281.28;5095068;28;20494;-81
2022/12/20 08:53:17;;;;;;;9.37;4.77;;;1.00;99.90;;;1.64;100.00;98276.81;5092065;28;20942;-81
2022/12/20 08:55:47;;;;;;;6.37;3.90;;;1.10;99.90;;;1.64;100.00;98269.91;5090612;28;20466;-81
2022/12/20 08:58:17;;;;;;;6.53;3.80;;;1.10;99.90;;;1.67;100.00;98267.09;5092317;28;20489;-81
2022/12/20 09:00:47;;;;;;;6.97;4.13;;;1.10;99.90;;;1.70;100.00;98268.63;5092916;28;20465;-81
2022/12/20 09:03:16;;;;;;;8.40;4.67;;;1.10;99.90;;;1.73;100.00;98265.78;5094332;28;20518;-82
2022/12/20 09:05:49;;;;;;;10.70;5.37;;;1.20;99.90;;;1.75;100.00;98261.31;5093333;28;20467;-81
2022/12/20 09:08:18;;;;;;;9.90;4.90;;;1.30;99.90;;;1.79;100.00;98257.53;5092363;28;20870;-81
2022/12/20 09:10:47;;;;;;;7.03;4.17;;;1.30;99.90;;;1.81;100.00;98264.19;5093376;28;21211;-81
2022/12/20 09:13:18;;;;;;;8.77;5.40;;;1.30;99.90;;;1.83;100.00;98259.75;5094365;28;20827;-81
2022/12/20 09:15:48;;;;;;;7.93;3.93;;;1.30;99.90;;;1.84;100.00;98250.25;5096551;28;20819;-81
2022/12/20 09:18:17;;;;;;;6.23;4.80;;;1.30;99.90;;;1.88;100.00;98246.44;5093432;28;20467;-81
2022/12/20 09:20:48;;;;;;;8.47;5.93;;;1.30;99.90;;;1.89;100.00;98240.34;5091784;28;20466;-80
2022/12/20 09:23:18;;;;;;;10.97;6.30;;;1.30;99.90;;;1.92;100.00;98237.50;5093448;28;20467;-82
2022/12/20 09:25:49;;;;;;;9.93;5.63;;;1.40;99.90;;;1.94;100.00;98241.59;5094385;28;21037;-81
2022/12/20 09:28:22;;;;;;;7.07;4.83;;;1.40;99.90;;;1.98;100.00;98231.84;5092651;28;20463;-81
2022/12/20 09:30:52;;;;;;;10.17;5.33;;;1.40;99.90;;;2.00;100.00;98232.53;5091979;28;21121;-81
2022/12/20 09:33:22;;;;;;;11.47;5.33;;;1.50;99.90;;;2.01;100.00;98224.66;5091618;28;20570;-81
2022/12/20 09:35:54;;;;;;;12.47;4.80;;;1.50;99.90;;;2.03;100.00;98224.53;5092099;28;20471;-80
2022/12/20 09:38:24;;;;;;;7.60;4.90;;;1.50;99.90;;;2.07;100.00;98223.34;5092030;28;20992;-80
2022/12/20 09:40:58;;;;;;;9.10;4.87;;;1.60;99.90;;;2.12;100.00;98223.75;5097039;28;21094;-81
2022/12/20 09:43:29;;;;;;;5.80;4.20;;;1.60;99.90;;;2.14;100.00;98227.03;5091777;28;20536;-81
2022/12/20 09:46:01;;;;;;;7.13;4.40;;;1.60;99.90;;;2.16;100.00;98232.88;5089676;28;20492;-81
2022/12/20 09:48:37;;;;;;;6.93;4.27;;;1.60;99.90;;;2.20;100.00;98233.44;5093487;28;20509;-81
2022/12/20 09:51:31;;;;;;;8.03;5.73;;;1.70;99.90;;;2.22;100.00;98234.94;5093584;28;20546;-80
2022/12/20 09:54:19;;;;;;;8.00;4.43;;;1.80;99.90;;;2.25;100.00;98226.97;5096107;28;20537;-81
2022/12/20 09:57:01;;;;;;;7.07;4.90;;;1.80;99.90;;;2.26;100.00;98223.41;5091629;28;20467;-81
2022/12/20 09:59:34;;;;;;;8.50;4.50;;;1.70;99.90;;;2.30;100.00;98231.69;5091082;28;20516;-81
2022/12/20 10:02:12;;;;;;;9.80;5.17;;;1.80;99.90;;;2.33;100.00;98232.25;5092245;28;20467;-81
2022/12/20 10:05:02;;;;;;;7.13;5.00;;;1.90;99.90;;;2.38;100.00;98232.69;5092948;28;20455;-81
2022/12/20 10:07:46;;;;;;;11.17;5.27;;;1.90;99.90;;;2.39;100.00;98218.84;5095996;28;20467;-81
2022/12/20 10:10:51;;;;;;;8.63;5.27;;;1.90;99.90;;;2.43;100.00;98220.19;5093792;28;20532;-81
2022/12/20 10:13:50;;;;;;;6.60;4.53;;;2.00;99.90;;;2.48;100.00;98218.06;5095519;28;21560;-80
2022/12/20 10:16:39;;;;;;;11.23;6.67;;;2.00;99.90;;;2.53;100.00;98208.13;5086856;28;20635;-81
2022/12/20 10:19:37;;;;;;;7.53;4.70;;;2.10;99.90;;;2.56;100.00;98207.06;5094285;28;20451;-80
2022/12/20 10:22:17;;;;;;;7.13;5.27;;;2.10;99.90;;;2.61;100.00;98198.91;5093451;28;20948;-81
2022/12/20 10:24:58;;;;;;;18.20;6.00;;;2.10;99.90;;;2.65;100.00;98201.09;5098894;28;20458;-81
2022/12/20 10:27:28;;;;;;;10.83;5.20;;;2.20;99.90;;;2.70;100.00;98200.72;5091259;28;20452;-83
2022/12/20 10:29:58;;;;;;;11.07;4.03;;;2.30;99.90;;;2.74;100.00;98199.50;5091104;28;20492;-81
2022/12/20 10:32:29;;;;;;;6.40;5.00;;;2.30;99.90;;;2.77;100.00;98188.91;5089803;28;20580;-81
2022/12/20 10:35:24;;;;;;;7.00;4.70;;;2.30;99.90;;;2.83;100.00;98194.34;5091664;28;20467;-81
2022/12/20 10:38:01;;;;;;;6.10;4.47;;;2.40;99.90;;;2.88;100.00;98197.31;5094672;28;20467;-81
2022/12/20 10:40:42;;;;;;;6.10;4.40;;;2.50;99.90;;;2.94;100.00;98188.22;5096977;28;20465;-81
2022/12/20 10:43:44;;;;;;;7.17;4.67;;;2.60;99.90;;;2.99;100.00;98186.03;5091887;28;20861;-80
2022/12/20 10:46:16;;;;;;;8.17;4.87;;;2.60;99.90;;;3.01;100.00;98182.41;5092428;28;20466;-81
2022/12/20 10:48:49;;;;;;;6.50;4.70;;;2.60;99.90;;;3.07;100.00;98188.75;5095158;28;20468;-82